sensor_id;sensor_type;location;lat;lon;timestamp;pressure;altitude;pressure_sealevel;temperature;humidity
73383;BME280;61600;48.126;11.542;2022-12-07T00:01:28;95551.03;;;6.16;67.18
73383;BME280;61600;48.126;11.542;2022-12-07T00:03:55;95564.13;;;6.34;67.07
73383;BME280;61600;48.126;11.542;2022-12-07T00:06:36;95557.00;;;6.18;66.78
73383;BME280;61600;48.126;11.542;2022-12-07T00:09:05;95553.59;;;5.96;67.75
73383;BME280;61600;48.126;11.542;2022-12-07T00:11:32;95550.16;;;6.06;67.75
73383;BME280;61600;48.126;11.542;2022-12-07T00:14:04;95543.13;;;5.73;68.95
73383;BME280;61600;48.126;11.542;2022-12-07T00:16:34;95557.69;;;5.72;68.77
73383;BME280;61600;48.126;11.542;2022-12-07T00:19:00;95556.94;;;5.76;68.77
73383;BME280;61600;48.126;11.542;2022-12-07T00:21:31;95553.81;;;5.89;67.68
73383;BME280;61600;48.126;11.542;2022-12-07T00:23:57;95552.75;;;5.90;68.12
73383;BME280;61600;48.126;11.542;2022-12-07T00:26:25;95536.91;;;5.72;68.31
73383;BME280;61600;48.126;11.542;2022-12-07T00:29:00;95529.88;;;5.71;68.48
73383;BME280;61600;48.126;11.542;2022-12-07T00:31:38;95540.53;;;5.56;68.93
73383;BME280;61600;48.126;11.542;2022-12-07T00:34:12;95549.53;;;5.67;68.59
73383;BME280;61600;48.126;11.542;2022-12-07T00:36:42;95539.31;;;5.69;68.63
73383;BME280;61600;48.126;11.542;2022-12-07T00:39:07;95554.41;;;5.96;67.75
73383;BME280;61600;48.126;11.542;2022-12-07T00:41:34;95544.38;;;5.87;68.07
73383;BME280;61600;48.126;11.542;2022-12-07T00:44:00;95544.56;;;5.53;68.84
73383;BME280;61600;48.126;11.542;2022-12-07T00:46:26;95540.47;;;5.78;67.75
73383;BME280;61600;48.126;11.542;2022-12-07T00:48:52;95532.03;;;5.69;68.33
73383;BME280;61600;48.126;11.542;2022-12-07T00:51:23;95546.06;;;5.66;68.24
73383;BME280;61600;48.126;11.542;2022-12-07T00:53:49;95543.84;;;5.63;68.75
73383;BME280;61600;48.126;11.542;2022-12-07T00:56:24;95544.66;;;5.90;67.56
73383;BME280;61600;48.126;11.542;2022-12-07T00:58:53;95546.53;;;5.90;67.64
73383;BME280;61600;48.126;11.542;2022-12-07T01:01:20;95551.66;;;5.91;67.51
73383;BME280;61600;48.126;11.542;2022-12-07T01:03:45;95545.09;;;5.82;67.42
73383;BME280;61600;48.126;11.542;2022-12-07T01:06:15;95536.06;;;5.98;67.18
73383;BME280;61600;48.126;11.542;2022-12-07T01:08:41;95538.53;;;6.00;67.29
73383;BME280;61600;48.126;11.542;2022-12-07T01:11:08;95540.38;;;5.94;67.24
73383;BME280;61600;48.126;11.542;2022-12-07T01:13:36;95536.63;;;6.00;67.08
73383;BME280;61600;48.126;11.542;2022-12-07T01:16:04;95538.81;;;6.03;67.17
73383;BME280;61600;48.126;11.542;2022-12-07T01:18:32;95548.72;;;5.93;67.19
73383;BME280;61600;48.126;11.542;2022-12-07T01:21:08;95541.16;;;5.95;67.06
73383;BME280;61600;48.126;11.542;2022-12-07T01:23:35;95547.38;;;5.95;66.64
73383;BME280;61600;48.126;11.542;2022-12-07T01:26:04;95541.69;;;5.92;66.65
73383;BME280;61600;48.126;11.542;2022-12-07T01:28:31;95540.91;;;5.96;67.26
73383;BME280;61600;48.126;11.542;2022-12-07T01:31:03;95539.06;;;6.02;66.97
73383;BME280;61600;48.126;11.542;2022-12-07T01:33:31;95551.94;;;5.90;66.86
73383;BME280;61600;48.126;11.542;2022-12-07T01:38:37;95535.66;;;5.85;67.40
73383;BME280;61600;48.126;11.542;2022-12-07T01:41:03;95541.69;;;5.92;67.32
73383;BME280;61600;48.126;11.542;2022-12-07T01:43:30;95547.72;;;6.04;66.42
73383;BME280;61600;48.126;11.542;2022-12-07T01:45:57;95545.56;;;6.01;66.91
73383;BME280;61600;48.126;11.542;2022-12-07T01:48:36;95542.91;;;6.11;66.86
73383;BME280;61600;48.126;11.542;2022-12-07T01:51:11;95536.06;;;5.98;67.03
73383;BME280;61600;48.126;11.542;2022-12-07T01:53:42;95530.66;;;5.93;67.56
73383;BME280;61600;48.126;11.542;2022-12-07T01:56:11;95533.19;;;5.78;67.44
73383;BME280;61600;48.126;11.542;2022-12-07T01:58:39;95535.16;;;5.88;67.50
73383;BME280;61600;48.126;11.542;2022-12-07T02:01:05;95535.06;;;5.78;67.56
73383;BME280;61600;48.126;11.542;2022-12-07T02:03:35;95529.59;;;5.94;66.65
73383;BME280;61600;48.126;11.542;2022-12-07T02:06:05;95537.53;;;5.79;67.56
73383;BME280;61600;48.126;11.542;2022-12-07T02:08:32;95538.84;;;5.77;67.31
73383;BME280;61600;48.126;11.542;2022-12-07T02:11:00;95538.97;;;5.60;67.87
73383;BME280;61600;48.126;11.542;2022-12-07T02:13:26;95530.78;;;5.82;67.85
73383;BME280;61600;48.126;11.542;2022-12-07T02:21:45;95524.66;;;5.86;68.13
73383;BME280;61600;48.126;11.542;2022-12-07T02:27:01;95527.13;;;5.93;67.86
73383;BME280;61600;48.126;11.542;2022-12-07T02:29:38;95516.63;;;5.96;67.64
73383;BME280;61600;48.126;11.542;2022-12-07T02:32:16;95512.28;;;5.95;66.95
73383;BME280;61600;48.126;11.542;2022-12-07T02:37:43;95521.69;;;5.88;67.66
73383;BME280;61600;48.126;11.542;2022-12-07T02:43:12;95515.22;;;5.89;66.86
73383;BME280;61600;48.126;11.542;2022-12-07T02:45:41;95515.94;;;5.79;68.11
73383;BME280;61600;48.126;11.542;2022-12-07T02:48:10;95514.16;;;5.90;68.20
73383;BME280;61600;48.126;11.542;2022-12-07T02:50:37;95508.66;;;5.85;67.99
73383;BME280;61600;48.126;11.542;2022-12-07T02:53:03;95509.59;;;5.64;68.38
73383;BME280;61600;48.126;11.542;2022-12-07T02:55:34;95511.75;;;5.93;67.34
73383;BME280;61600;48.126;11.542;2022-12-07T02:58:33;95510.69;;;5.94;67.84
73383;BME280;61600;48.126;11.542;2022-12-07T03:04:08;95499.44;;;6.08;67.29
73383;BME280;61600;48.126;11.542;2022-12-07T03:06:42;95508.88;;;6.10;67.74
73383;BME280;61600;48.126;11.542;2022-12-07T03:09:17;95509.44;;;6.12;67.40
73383;BME280;61600;48.126;11.542;2022-12-07T03:12:01;95513.22;;;6.11;67.15
73383;BME280;61600;48.126;11.542;2022-12-07T03:14:33;95506.47;;;6.09;67.53
73383;BME280;61600;48.126;11.542;2022-12-07T03:17:15;95501.13;;;6.19;67.33
73383;BME280;61600;48.126;11.542;2022-12-07T03:19:42;95501.66;;;6.16;67.25
73383;BME280;61600;48.126;11.542;2022-12-07T03:22:11;95511.94;;;6.24;67.19
73383;BME280;61600;48.126;11.542;2022-12-07T03:24:53;95512.16;;;6.17;67.33
73383;BME280;61600;48.126;11.542;2022-12-07T03:27:22;95501.59;;;6.11;67.46
73383;BME280;61600;48.126;11.542;2022-12-07T03:30:02;95504.88;;;6.18;67.24
73383;BME280;61600;48.126;11.542;2022-12-07T03:32:45;95505.88;;;6.07;67.77
73383;BME280;61600;48.126;11.542;2022-12-07T03:35:30;95507.53;;;6.08;67.80
73383;BME280;61600;48.126;11.542;2022-12-07T03:38:13;95508.00;;;5.99;67.31
73383;BME280;61600;48.126;11.542;2022-12-07T03:43:18;95508.28;;;6.03;67.76
73383;BME280;61600;48.126;11.542;2022-12-07T03:48:26;95501.00;;;6.03;67.76
73383;BME280;61600;48.126;11.542;2022-12-07T03:56:39;95501.78;;;5.99;68.17
73383;BME280;61600;48.126;11.542;2022-12-07T03:59:05;95489.41;;;5.66;69.10
73383;BME280;61600;48.126;11.542;2022-12-07T04:01:32;95500.81;;;5.78;68.88
73383;BME280;61600;48.126;11.542;2022-12-07T04:03:58;95490.19;;;5.67;69.49
73383;BME280;61600;48.126;11.542;2022-12-07T04:06:24;95494.88;;;5.76;68.50
73383;BME280;61600;48.126;11.542;2022-12-07T04:08:49;95488.31;;;5.67;69.07
73383;BME280;61600;48.126;11.542;2022-12-07T04:11:15;95490.22;;;5.72;69.18
73383;BME280;61600;48.126;11.542;2022-12-07T04:13:41;95494.56;;;5.73;69.38
73383;BME280;61600;48.126;11.542;2022-12-07T04:16:25;95502.69;;;5.78;69.26
73383;BME280;61600;48.126;11.542;2022-12-07T04:18:51;95491.66;;;5.79;68.62
73383;BME280;61600;48.126;11.542;2022-12-07T04:21:17;95494.34;;;5.79;68.49
73383;BME280;61600;48.126;11.542;2022-12-07T04:23:43;95503.22;;;5.75;68.82
73383;BME280;61600;48.126;11.542;2022-12-07T04:26:08;95498.84;;;5.69;69.12
73383;BME280;61600;48.126;11.542;2022-12-07T04:28:34;95495.19;;;5.53;70.00
73383;BME280;61600;48.126;11.542;2022-12-07T04:31:00;95508.16;;;5.56;69.70
73383;BME280;61600;48.126;11.542;2022-12-07T04:33:26;95499.91;;;5.68;69.95
73383;BME280;61600;48.126;11.542;2022-12-07T04:35:52;95493.81;;;5.82;69.40
73383;BME280;61600;48.126;11.542;2022-12-07T04:38:17;95501.34;;;5.43;70.25
73383;BME280;61600;48.126;11.542;2022-12-07T04:40:43;95499.31;;;5.61;69.51
73383;BME280;61600;48.126;11.542;2022-12-07T04:43:09;95494.50;;;5.63;69.92
73383;BME280;61600;48.126;11.542;2022-12-07T04:45:35;95496.19;;;5.42;71.01
73383;BME280;61600;48.126;11.542;2022-12-07T04:48:00;95498.38;;;5.45;71.29
73383;BME280;61600;48.126;11.542;2022-12-07T04:50:26;95491.59;;;5.42;71.33
73383;BME280;61600;48.126;11.542;2022-12-07T04:52:52;95491.69;;;5.52;71.25
73383;BME280;61600;48.126;11.542;2022-12-07T04:55:17;95487.09;;;5.53;71.25
73383;BME280;61600;48.126;11.542;2022-12-07T04:57:43;95507.28;;;5.45;71.35
73383;BME280;61600;48.126;11.542;2022-12-07T05:00:09;95496.97;;;5.11;72.76
73383;BME280;61600;48.126;11.542;2022-12-07T05:02:35;95499.41;;;5.39;72.03
73383;BME280;61600;48.126;11.542;2022-12-07T05:05:01;95505.16;;;5.47;71.28
73383;BME280;61600;48.126;11.542;2022-12-07T05:07:26;95498.50;;;5.28;72.02
73383;BME280;61600;48.126;11.542;2022-12-07T05:09:52;95493.38;;;5.27;71.57
73383;BME280;61600;48.126;11.542;2022-12-07T05:12:17;95501.09;;;5.18;72.07
73383;BME280;61600;48.126;11.542;2022-12-07T05:14:43;95508.84;;;5.10;71.54
73383;BME280;61600;48.126;11.542;2022-12-07T05:17:09;95504.47;;;5.30;72.20
73383;BME280;61600;48.126;11.542;2022-12-07T05:19:37;95504.31;;;5.15;72.13
73383;BME280;61600;48.126;11.542;2022-12-07T05:22:03;95502.53;;;4.99;73.09
73383;BME280;61600;48.126;11.542;2022-12-07T05:24:28;95503.47;;;5.15;72.06
73383;BME280;61600;48.126;11.542;2022-12-07T05:26:54;95502.28;;;5.27;71.30
73383;BME280;61600;48.126;11.542;2022-12-07T05:29:20;95494.44;;;5.26;71.47
73383;BME280;61600;48.126;11.542;2022-12-07T05:31:46;95497.50;;;4.86;72.94
73383;BME280;61600;48.126;11.542;2022-12-07T05:34:12;95511.06;;;5.18;72.18
73383;BME280;61600;48.126;11.542;2022-12-07T05:36:38;95502.28;;;5.27;71.69
73383;BME280;61600;48.126;11.542;2022-12-07T05:39:05;95501.09;;;5.18;72.00
73383;BME280;61600;48.126;11.542;2022-12-07T05:41:31;95497.81;;;5.43;71.25
73383;BME280;61600;48.126;11.542;2022-12-07T05:44:16;95499.75;;;5.47;70.91
73383;BME280;61600;48.126;11.542;2022-12-07T05:46:42;95494.88;;;5.18;71.45
73383;BME280;61600;48.126;11.542;2022-12-07T05:49:08;95497.38;;;5.24;71.52
73383;BME280;61600;48.126;11.542;2022-12-07T05:51:49;95495.16;;;5.16;71.05
73383;BME280;61600;48.126;11.542;2022-12-07T05:54:15;95494.09;;;5.17;70.75
73383;BME280;61600;48.126;11.542;2022-12-07T05:56:41;95499.28;;;5.24;70.74
73383;BME280;61600;48.126;11.542;2022-12-07T05:59:08;95498.88;;;5.10;71.43
73383;BME280;61600;48.126;11.542;2022-12-07T06:01:54;95494.13;;;5.22;70.39
73383;BME280;61600;48.126;11.542;2022-12-07T06:04:21;95505.03;;;5.06;70.96
73383;BME280;61600;48.126;11.542;2022-12-07T06:06:47;95513.97;;;5.11;70.99
73383;BME280;61600;48.126;11.542;2022-12-07T06:09:14;95500.91;;;4.98;71.62
73383;BME280;61600;48.126;11.542;2022-12-07T06:11:42;95505.16;;;4.94;71.44
73383;BME280;61600;48.126;11.542;2022-12-07T06:14:27;95510.09;;;5.29;70.91
73383;BME280;61600;48.126;11.542;2022-12-07T06:16:53;95504.50;;;5.09;71.04
73383;BME280;61600;48.126;11.542;2022-12-07T06:19:19;95505.22;;;4.99;70.89
73383;BME280;61600;48.126;11.542;2022-12-07T06:21:44;95511.16;;;5.01;70.73
73383;BME280;61600;48.126;11.542;2022-12-07T06:24:15;95508.47;;;5.01;71.55
73383;BME280;61600;48.126;11.542;2022-12-07T06:26:41;95512.69;;;4.92;71.71
73383;BME280;61600;48.126;11.542;2022-12-07T06:29:07;95522.66;;;4.91;71.45
73383;BME280;61600;48.126;11.542;2022-12-07T06:31:36;95528.31;;;5.17;71.30
73383;BME280;61600;48.126;11.542;2022-12-07T06:34:05;95515.06;;;5.10;71.48
73383;BME280;61600;48.126;11.542;2022-12-07T06:36:32;95523.81;;;5.00;71.69
73383;BME280;61600;48.126;11.542;2022-12-07T06:38:58;95520.81;;;4.97;72.02
73383;BME280;61600;48.126;11.542;2022-12-07T06:41:24;95513.56;;;4.97;71.65
73383;BME280;61600;48.126;11.542;2022-12-07T06:43:50;95521.53;;;5.14;70.55
73383;BME280;61600;48.126;11.542;2022-12-07T06:46:16;95522.31;;;5.36;70.23
73383;BME280;61600;48.126;11.542;2022-12-07T06:48:43;95519.00;;;5.29;70.26
73383;BME280;61600;48.126;11.542;2022-12-07T06:51:10;95526.84;;;5.31;70.50
73383;BME280;61600;48.126;11.542;2022-12-07T06:53:36;95525.00;;;5.36;70.19
73383;BME280;61600;48.126;11.542;2022-12-07T06:56:07;95520.50;;;5.47;70.19
73383;BME280;61600;48.126;11.542;2022-12-07T06:58:36;95517.94;;;5.30;70.46
73383;BME280;61600;48.126;11.542;2022-12-07T07:01:02;95525.84;;;5.42;70.47
73383;BME280;61600;48.126;11.542;2022-12-07T07:03:28;95532.38;;;5.46;70.25
73383;BME280;61600;48.126;11.542;2022-12-07T07:05:57;95528.84;;;5.45;70.18
73383;BME280;61600;48.126;11.542;2022-12-07T07:08:23;95525.59;;;5.43;69.89
73383;BME280;61600;48.126;11.542;2022-12-07T07:10:49;95524.38;;;5.29;69.94
73383;BME280;61600;48.126;11.542;2022-12-07T07:13:17;95515.91;;;4.89;71.29
73383;BME280;61600;48.126;11.542;2022-12-07T07:15:43;95513.50;;;5.19;70.00
73383;BME280;61600;48.126;11.542;2022-12-07T07:18:09;95531.16;;;5.32;69.32
73383;BME280;61600;48.126;11.542;2022-12-07T07:20:36;95540.81;;;5.01;69.87
73383;BME280;61600;48.126;11.542;2022-12-07T07:23:02;95533.00;;;5.26;69.50
73383;BME280;61600;48.126;11.542;2022-12-07T07:25:27;95536.41;;;5.17;70.18
73383;BME280;61600;48.126;11.542;2022-12-07T07:27:54;95537.66;;;5.09;70.77
73383;BME280;61600;48.126;11.542;2022-12-07T07:30:20;95531.75;;;5.39;69.56
73383;BME280;61600;48.126;11.542;2022-12-07T07:32:46;95529.06;;;5.39;69.80
73383;BME280;61600;48.126;11.542;2022-12-07T07:35:12;95534.41;;;5.07;70.01
73383;BME280;61600;48.126;11.542;2022-12-07T07:37:40;95538.28;;;5.16;70.00
73383;BME280;61600;48.126;11.542;2022-12-07T07:40:26;95540.16;;;4.89;70.58
73383;BME280;61600;48.126;11.542;2022-12-07T07:42:55;95540.16;;;5.16;69.52
73383;BME280;61600;48.126;11.542;2022-12-07T07:45:22;95545.41;;;5.27;69.09
73383;BME280;61600;48.126;11.542;2022-12-07T07:47:49;95552.47;;;5.33;68.88
73383;BME280;61600;48.126;11.542;2022-12-07T07:50:15;95539.72;;;5.24;68.76
73383;BME280;61600;48.126;11.542;2022-12-07T07:52:41;95533.34;;;5.08;69.38
73383;BME280;61600;48.126;11.542;2022-12-07T07:55:08;95543.09;;;4.87;70.49
73383;BME280;61600;48.126;11.542;2022-12-07T07:57:36;95550.66;;;5.12;70.46
73383;BME280;61600;48.126;11.542;2022-12-07T08:00:08;95548.34;;;4.99;70.72
73383;BME280;61600;48.126;11.542;2022-12-07T08:02:34;95556.31;;;5.37;69.53
73383;BME280;61600;48.126;11.542;2022-12-07T08:04:59;95545.34;;;5.22;69.15
73383;BME280;61600;48.126;11.542;2022-12-07T08:07:27;95547.78;;;4.97;70.14
73383;BME280;61600;48.126;11.542;2022-12-07T08:09:53;95538.31;;;4.73;71.13
73383;BME280;61600;48.126;11.542;2022-12-07T08:12:19;95543.59;;;4.84;71.08
73383;BME280;61600;48.126;11.542;2022-12-07T08:14:45;95550.47;;;4.97;70.69
73383;BME280;61600;48.126;11.542;2022-12-07T08:17:11;95542.38;;;4.97;70.83
73383;BME280;61600;48.126;11.542;2022-12-07T08:19:38;95538.75;;;4.86;70.48
73383;BME280;61600;48.126;11.542;2022-12-07T08:22:04;95556.19;;;4.79;71.03
73383;BME280;61600;48.126;11.542;2022-12-07T08:24:33;95554.56;;;4.56;72.03
73383;BME280;61600;48.126;11.542;2022-12-07T08:26:59;95558.72;;;5.12;70.41
73383;BME280;61600;48.126;11.542;2022-12-07T08:29:26;95559.75;;;5.06;70.15
73383;BME280;61600;48.126;11.542;2022-12-07T08:31:53;95563.44;;;5.00;69.98
73383;BME280;61600;48.126;11.542;2022-12-07T08:34:19;95562.94;;;5.03;70.14
73383;BME280;61600;48.126;11.542;2022-12-07T08:36:44;95562.69;;;5.31;69.79
73383;BME280;61600;48.126;11.542;2022-12-07T08:39:12;95557.06;;;5.06;69.27
73383;BME280;61600;48.126;11.542;2022-12-07T08:41:38;95556.88;;;5.18;69.63
73383;BME280;61600;48.126;11.542;2022-12-07T08:44:05;95554.22;;;5.44;68.92
73383;BME280;61600;48.126;11.542;2022-12-07T08:46:38;95554.72;;;5.41;68.54
73383;BME280;61600;48.126;11.542;2022-12-07T08:49:10;95556.44;;;5.52;68.48
73383;BME280;61600;48.126;11.542;2022-12-07T08:51:38;95548.44;;;5.63;68.25
73383;BME280;61600;48.126;11.542;2022-12-07T08:54:07;95552.06;;;5.46;67.69
73383;BME280;61600;48.126;11.542;2022-12-07T08:56:37;95541.72;;;5.38;68.37
73383;BME280;61600;48.126;11.542;2022-12-07T08:59:04;95565.31;;;5.80;67.53
73383;BME280;61600;48.126;11.542;2022-12-07T09:01:31;95564.41;;;5.96;67.45
73383;BME280;61600;48.126;11.542;2022-12-07T09:03:57;95550.56;;;5.61;67.46
73383;BME280;61600;48.126;11.542;2022-12-07T09:06:23;95563.81;;;5.62;67.78
73383;BME280;61600;48.126;11.542;2022-12-07T09:08:52;95557.81;;;5.55;67.14
73383;BME280;61600;48.126;11.542;2022-12-07T09:11:19;95552.06;;;5.46;67.42
73383;BME280;61600;48.126;11.542;2022-12-07T09:13:45;95544.72;;;6.00;66.26
73383;BME280;61600;48.126;11.542;2022-12-07T09:16:11;95558.81;;;5.76;66.65
73383;BME280;61600;48.126;11.542;2022-12-07T09:18:45;95549.13;;;5.80;66.36
73383;BME280;61600;48.126;11.542;2022-12-07T09:21:11;95549.66;;;5.77;66.43
73383;BME280;61600;48.126;11.542;2022-12-07T09:23:37;95542.56;;;5.71;66.36
73383;BME280;61600;48.126;11.542;2022-12-07T09:26:03;95544.38;;;5.87;66.23
73383;BME280;61600;48.126;11.542;2022-12-07T09:28:31;95542.34;;;6.04;65.26
73383;BME280;61600;48.126;11.542;2022-12-07T09:30:56;95549.69;;;5.82;66.08
73383;BME280;61600;48.126;11.542;2022-12-07T09:33:22;95557.97;;;6.02;65.37
73383;BME280;61600;48.126;11.542;2022-12-07T09:35:49;95555.84;;;6.09;64.81
73383;BME280;61600;48.126;11.542;2022-12-07T09:38:16;95552.19;;;5.88;65.77
73383;BME280;61600;48.126;11.542;2022-12-07T09:40:42;95542.63;;;5.76;65.90
73383;BME280;61600;48.126;11.542;2022-12-07T09:43:27;95537.34;;;5.86;65.70
73383;BME280;61600;48.126;11.542;2022-12-07T09:45:54;95536.88;;;5.94;64.69
73383;BME280;61600;48.126;11.542;2022-12-07T09:48:30;95548.78;;;6.03;65.35
73383;BME280;61600;48.126;11.542;2022-12-07T09:50:58;95544.75;;;6.06;65.38
73383;BME280;61600;48.126;11.542;2022-12-07T09:53:31;95544.13;;;5.93;65.15
73383;BME280;61600;48.126;11.542;2022-12-07T09:55:59;95537.16;;;5.97;66.06
73383;BME280;61600;48.126;11.542;2022-12-07T09:58:26;95546.66;;;6.05;64.95
73383;BME280;61600;48.126;11.542;2022-12-07T10:01:00;95533.94;;;6.00;65.76
73383;BME280;61600;48.126;11.542;2022-12-07T10:03:27;95539.69;;;6.14;64.92
73383;BME280;61600;48.126;11.542;2022-12-07T10:05:54;95531.34;;;6.16;64.96
73383;BME280;61600;48.126;11.542;2022-12-07T10:08:20;95524.09;;;6.26;63.71
73383;BME280;61600;48.126;11.542;2022-12-07T10:10:52;95515.78;;;6.33;63.26
73383;BME280;61600;48.126;11.542;2022-12-07T10:13:42;95524.13;;;6.31;63.25
73383;BME280;61600;48.126;11.542;2022-12-07T10:18:50;95512.31;;;6.47;63.03
73383;BME280;61600;48.126;11.542;2022-12-07T10:21:19;95504.59;;;6.61;61.93
73383;BME280;61600;48.126;11.542;2022-12-07T10:24:04;95521.69;;;6.82;61.35
73383;BME280;61600;48.126;11.542;2022-12-07T10:26:36;95513.25;;;6.68;61.02
73383;BME280;61600;48.126;11.542;2022-12-07T10:29:31;95513.03;;;6.80;60.28
73383;BME280;61600;48.126;11.542;2022-12-07T10:32:03;95515.16;;;6.73;60.86
73383;BME280;61600;48.126;11.542;2022-12-07T10:34:33;95513.22;;;6.63;61.10
73383;BME280;61600;48.126;11.542;2022-12-07T10:39:48;95514.81;;;6.59;61.41
73383;BME280;61600;48.126;11.542;2022-12-07T10:42:29;95516.66;;;6.43;61.65
73383;BME280;61600;48.126;11.542;2022-12-07T10:45:17;95515.94;;;6.16;62.16
73383;BME280;61600;48.126;11.542;2022-12-07T10:48:10;95514.00;;;6.53;61.87
73383;BME280;61600;48.126;11.542;2022-12-07T10:50:41;95502.75;;;6.77;60.55
73383;BME280;61600;48.126;11.542;2022-12-07T10:56:33;95500.38;;;7.00;58.47
73383;BME280;61600;48.126;11.542;2022-12-07T11:05:06;95485.03;;;7.26;55.86
73383;BME280;61600;48.126;11.542;2022-12-07T11:13:45;95466.13;;;7.31;56.98
73383;BME280;61600;48.126;11.542;2022-12-07T11:22:10;95462.84;;;7.75;55.81
73383;BME280;61600;48.126;11.542;2022-12-07T11:24:52;95459.88;;;7.76;55.51
73383;BME280;61600;48.126;11.542;2022-12-07T11:27:37;95462.31;;;7.47;55.37
73383;BME280;61600;48.126;11.542;2022-12-07T11:30:19;95451.69;;;6.90;55.41
73383;BME280;61600;48.126;11.542;2022-12-07T11:33:19;95461.78;;;7.40;55.91
73383;BME280;61600;48.126;11.542;2022-12-07T11:41:11;95464.47;;;7.96;54.05
73383;BME280;61600;48.126;11.542;2022-12-07T11:43:53;95451.19;;;7.89;54.05
73383;BME280;61600;48.126;11.542;2022-12-07T11:46:20;95449.88;;;7.77;53.84
73383;BME280;61600;48.126;11.542;2022-12-07T11:49:10;95446.59;;;7.90;53.31
73383;BME280;61600;48.126;11.542;2022-12-07T11:51:39;95440.38;;;7.94;53.51
73383;BME280;61600;48.126;11.542;2022-12-07T11:54:18;95436.88;;;7.59;53.86
73383;BME280;61600;48.126;11.542;2022-12-07T11:56:47;95436.88;;;7.23;55.27
73383;BME280;61600;48.126;11.542;2022-12-07T11:59:35;95432.56;;;7.27;54.82
73383;BME280;61600;48.126;11.542;2022-12-07T12:02:13;95428.50;;;7.35;55.04
73383;BME280;61600;48.126;11.542;2022-12-07T12:04:47;95426.59;;;7.81;54.38
73383;BME280;61600;48.126;11.542;2022-12-07T12:07:19;95430.66;;;7.38;54.94
73383;BME280;61600;48.126;11.542;2022-12-07T12:10:06;95425.25;;;7.58;54.98
73383;BME280;61600;48.126;11.542;2022-12-07T12:21:10;95410.63;;;7.69;54.05
73383;BME280;61600;48.126;11.542;2022-12-07T12:23:42;95405.75;;;7.61;54.78
73383;BME280;61600;48.126;11.542;2022-12-07T12:26:24;95407.66;;;7.40;55.20
73383;BME280;61600;48.126;11.542;2022-12-07T12:28:57;95393.81;;;6.86;56.66
73383;BME280;61600;48.126;11.542;2022-12-07T12:33:55;95409.81;;;7.13;56.94
73383;BME280;61600;48.126;11.542;2022-12-07T12:46:53;95408.75;;;7.60;55.46
73383;BME280;61600;48.126;11.542;2022-12-07T12:51:55;95395.66;;;8.07;54.26
73383;BME280;61600;48.126;11.542;2022-12-07T12:58:21;95395.19;;;7.80;54.17
73383;BME280;61600;48.126;11.542;2022-12-07T13:00:39;95384.09;;;7.66;54.33
73383;BME280;61600;48.126;11.542;2022-12-07T13:03:24;95391.38;;;7.76;54.54
73383;BME280;61600;48.126;11.542;2022-12-07T13:06:32;95390.81;;;7.89;54.36
73383;BME280;61600;48.126;11.542;2022-12-07T13:12:18;95372.72;;;7.64;54.78
73383;BME280;61600;48.126;11.542;2022-12-07T13:14:57;95382.94;;;7.92;54.75
73383;BME280;61600;48.126;11.542;2022-12-07T13:26:27;95375.16;;;7.81;54.65
73383;BME280;61600;48.126;11.542;2022-12-07T13:34:40;95358.47;;;8.33;52.05
73383;BME280;61600;48.126;11.542;2022-12-07T13:37:24;95360.94;;;8.19;51.76
73383;BME280;61600;48.126;11.542;2022-12-07T13:39:59;95359.25;;;8.38;51.25
73383;BME280;61600;48.126;11.542;2022-12-07T13:42:29;95379.31;;;8.37;51.35
73383;BME280;61600;48.126;11.542;2022-12-07T13:51:00;95357.34;;;7.44;53.58
73383;BME280;61600;48.126;11.542;2022-12-07T13:53:45;95372.22;;;7.42;53.65
73383;BME280;61600;48.126;11.542;2022-12-07T13:56:41;95358.16;;;7.45;53.21
73383;BME280;61600;48.126;11.542;2022-12-07T13:59:18;95369.25;;;7.43;53.33
73383;BME280;61600;48.126;11.542;2022-12-07T14:01:54;95366.00;;;7.06;54.10
73383;BME280;61600;48.126;11.542;2022-12-07T14:04:30;95371.13;;;7.08;54.60
73383;BME280;61600;48.126;11.542;2022-12-07T14:06:59;95377.88;;;6.80;55.07
73383;BME280;61600;48.126;11.542;2022-12-07T14:09:31;95373.28;;;6.90;55.12
73383;BME280;61600;48.126;11.542;2022-12-07T14:12:17;95363.56;;;6.89;54.47
73383;BME280;61600;48.126;11.542;2022-12-07T14:14:47;95367.88;;;7.00;54.51
73383;BME280;61600;48.126;11.542;2022-12-07T14:17:17;95367.34;;;7.09;54.30
73383;BME280;61600;48.126;11.542;2022-12-07T14:22:39;95363.31;;;7.16;54.08
73383;BME280;61600;48.126;11.542;2022-12-07T14:25:20;95368.72;;;7.16;54.10
73383;BME280;61600;48.126;11.542;2022-12-07T14:30:18;95356.81;;;7.02;54.03
73383;BME280;61600;48.126;11.542;2022-12-07T14:32:52;95370.63;;;7.11;53.69
73383;BME280;61600;48.126;11.542;2022-12-07T14:35:19;95363.06;;;7.18;53.86
73383;BME280;61600;48.126;11.542;2022-12-07T14:37:47;95358.16;;;7.04;53.41
73383;BME280;61600;48.126;11.542;2022-12-07T14:40:27;95370.56;;;6.70;53.19
73383;BME280;61600;48.126;11.542;2022-12-07T14:42:57;95344.88;;;6.83;52.78
73383;BME280;61600;48.126;11.542;2022-12-07T14:45:29;95355.19;;;6.96;52.75
73383;BME280;61600;48.126;11.542;2022-12-07T14:47:55;95374.88;;;6.61;52.57
73383;BME280;61600;48.126;11.542;2022-12-07T14:50:21;95374.06;;;6.71;52.96
73383;BME280;61600;48.126;11.542;2022-12-07T14:52:56;95361.38;;;6.71;53.18
73383;BME280;61600;48.126;11.542;2022-12-07T14:55:29;95351.88;;;6.53;53.41
73383;BME280;61600;48.126;11.542;2022-12-07T14:57:57;95361.38;;;6.71;53.20
73383;BME280;61600;48.126;11.542;2022-12-07T15:00:27;95349.41;;;6.42;53.47
73383;BME280;61600;48.126;11.542;2022-12-07T15:02:57;95353.78;;;6.53;54.12
73383;BME280;61600;48.126;11.542;2022-12-07T15:05:27;95360.81;;;6.69;53.74
73383;BME280;61600;48.126;11.542;2022-12-07T15:07:53;95346.50;;;6.53;54.04
73383;BME280;61600;48.126;11.542;2022-12-07T15:10:27;95354.84;;;6.47;54.56
73383;BME280;61600;48.126;11.542;2022-12-07T15:12:56;95345.94;;;6.51;54.45
73383;BME280;61600;48.126;11.542;2022-12-07T15:15:49;95361.91;;;6.73;54.46
73383;BME280;61600;48.126;11.542;2022-12-07T15:18:18;95348.91;;;6.65;55.38